Latest Weather Observations for Roxby Downs

IDS60801

Issued at 7:31 am CDT Tuesday 7 December 2021 (issued every 10 minutes, with the page automatically refreshed every 10 minutes)

About weather observations | Map of weather stations | Latest weather observations for SA | Other Formats
Station Details ID: 016096 Name: OLYMPIC DAM AERODROME Lat: -30.49 Lon: 136.87 Height: 99.21 m
Data from the previous 72 hours. | See also: Recent months at Roxby Downs
Date/Time
CDT
Temp
°C
App
Temp
°C
Dew
Point
°C
Rel
Hum
%
Delta-T
°C
Wind Press
QNH
hPa
Press
MSL
hPa
Rain since
9am
mm
Dir  Spd
km/h
Gust
km/h
Spd
kts
Gust
kts
07/07:30am 16.8 12.7 10.2 65 3.5 S 22 33 12 18 1014.9 1014.3 0.2
07/07:00am 16.3 13.1 9.9 66 3.4 S 17 24 9 13 1014.5 1013.9 0.2
07/06:30am 15.9 13.4 9.8 67 3.2 S 13 22 7 12 1014.3 1013.7 0.2
07/06:00am 16.1 13.2 9.5 65 3.4 S 15 22 8 12 1014.0 1013.4 0.2
07/05:30am 16.7 12.5 9.6 63 3.7 S 22 32 12 17 1013.6 1013.0 0.2
07/05:00am 17.2 13.9 10.8 66 3.4 S 19 22 10 12 1013.1 1012.6 0.2
07/04:30am 17.8 13.1 10.7 63 3.8 S 26 37 14 20 1012.8 1012.3 0.2
07/04:00am 18.2 14.8 11.3 64 3.8 S 20 32 11 17 1012.6 1012.1 0.2
07/03:30am 18.8 15.3 10.9 60 4.3 S 20 28 11 15 1012.5 1012.0 0.2
07/03:00am 19.6 15.3 10.9 57 4.8 S 24 35 13 19 1012.5 1012.0 0.2
07/02:30am 20.3 16.2 10.1 52 5.5 SSE 22 32 12 17 1012.5 1012.0 0.2
07/02:00am 21.0 16.6 8.9 46 6.4 SSE 22 35 12 19 1012.6 1012.1 0.2
07/01:30am 21.8 17.1 7.6 40 7.4 SSE 22 33 12 18 1012.5 1012.0 0.2
07/01:00am 22.7 18.6 7.7 38 7.9 S 19 28 10 15 1012.4 1011.9 0.2
07/12:30am 23.1 19.4 8.0 38 8.0 SSW 17 26 9 14 1012.1 1011.6 0.2
07/12:00am 23.4 19.7 7.9 37 8.2 SSW 17 20 9 11 1012.3 1011.8 0.2
 
Date/Time
CDT
Temp
°C
App
Temp
°C
Dew
Point
°C
Rel
Hum
%
Delta-T
°C
Wind Press
QNH
hPa
Press
MSL
hPa
Rain since
9am
mm
Dir  Spd
km/h
Gust
km/h
Spd
kts
Gust
kts
06/11:30pm 23.3 20.9 8.6 39 7.9 SW 11 15 6 8 1012.0 1011.5 0.2
06/11:00pm 23.0 21.0 8.7 40 7.7 SW 9 13 5 7 1011.9 1011.4 0.2
06/10:30pm 23.2 20.8 8.5 39 7.9 SW 11 11 6 6 1011.7 1011.2 0.2
06/10:00pm 23.6 21.5 8.1 37 8.2 WSW 9 11 5 6 1011.5 1011.0 0.2
06/09:30pm 24.9 22.4 8.4 35 8.9 SW 11 13 6 7 1011.3 1010.8 0.2
06/09:00pm 25.5 23.4 8.1 33 9.4 SW 9 11 5 6 1011.1 1010.6 0.2
06/08:30pm 26.7 23.3 7.7 30 10.2 SW 15 20 8 11 1010.8 1010.3 0.2
06/08:00pm 27.5 23.1 7.4 28 10.8 SSW 20 30 11 16 1010.6 1010.1 0.2
06/07:30pm 28.0 23.2 7.3 27 11.1 SSW 22 33 12 18 1010.4 1009.9 0.2
06/07:00pm 28.4 23.2 7.1 26 11.4 SSW 24 35 13 19 1010.1 1009.6 0.2
06/06:30pm 28.8 23.0 7.9 27 11.4 SSW 28 41 15 22 1009.9 1009.4 0.2
06/06:00pm 29.0 23.4 8.7 28 11.2 SSW 28 39 15 21 1009.8 1009.3 0.2
06/05:30pm 29.2 24.1 9.3 29 11.1 SSW 26 41 14 22 1009.7 1009.2 0.2
06/05:00pm 28.8 24.2 9.5 30 10.8 SW 24 35 13 19 1009.8 1009.3 0.2
06/04:30pm 28.8 24.7 10.0 31 10.6 SSW 22 33 12 18 1010.1 1009.6 0.2
06/04:00pm 28.7 24.5 9.9 31 10.6 SW 22 54 12 29 1010.3 1009.8 0.2
06/03:30pm 28.5 23.7 8.7 29 10.9 SW 24 37 13 20 1010.4 1009.9 0.2
06/03:00pm 28.1 24.3 9.9 32 10.2 WSW 20 32 11 17 1010.7 1010.2 0.2
06/02:30pm 27.7 23.7 10.4 34 9.8 WSW 22 35 12 19 1011.0 1010.5 0.2
06/02:00pm 26.7 23.1 10.4 36 9.2 WSW 20 37 11 20 1011.3 1010.8 0.2
06/01:30pm 27.1 23.6 10.8 36 9.3 W 20 33 11 18 1011.6 1011.1 0.2
06/01:00pm 26.1 23.2 11.1 39 8.5 W 17 28 9 15 1011.9 1011.4 0.2
06/12:30pm 25.1 22.5 10.6 40 8.1 WSW 15 26 8 14 1012.2 1011.7 0.2
06/12:00pm 24.5 22.2 11.8 45 7.2 WSW 15 26 8 14 1012.5 1012.0 0.2
06/11:30am 24.2 22.3 11.9 46 7.0 W 13 24 7 13 1012.8 1012.3 0.2
06/11:00am 24.0 22.2 12.0 47 6.8 W 13 20 7 11 1012.7 1012.2 0.2
06/10:30am 23.6 22.7 12.6 50 6.3 SW 9 20 5 11 1012.9 1012.4 0.2
06/10:00am 22.7 21.0 12.3 52 5.9 SSW 13 19 7 10 1013.2 1012.7 0.2
06/09:30am 22.4 20.8 12.9 55 5.5 SW 13 17 7 9 1013.5 1012.9 0.0
06/09:00am 21.7 20.3 13.3 59 4.8 SW 13 17 7 9 1013.5 1012.9 1.4
06/08:30am 20.6 19.3 13.8 65 3.9 SSW 13 19 7 10 1013.2 1012.7 1.4
06/08:00am 19.9 19.0 13.8 68 3.5 SSW 11 15 6 8 1013.0 1012.5 1.4
06/07:30am 18.8 18.5 14.3 75 2.6 S 9 13 5 7 1012.9 1012.4 1.4
06/07:00am 17.7 17.1 14.6 82 1.8 SW 11 13 6 7 1012.5 1012.0 1.4
06/06:30am 17.8 16.8 14.5 81 1.9 SW 13 15 7 8 1012.1 1011.6 1.4
06/06:00am 18.0 17.5 14.9 82 1.8 WSW 11 13 6 7 1011.9 1011.4 1.4
06/05:30am 18.6 18.6 15.3 81 1.9 WSW 9 13 5 7 1011.8 1011.3 1.4
06/05:00am 19.5 19.5 15.2 76 2.5 WSW 9 13 5 7 1011.7 1011.2 1.4
06/04:30am 19.8 19.7 15.0 74 2.8 WSW 9 13 5 7 1011.5 1011.0 1.4
06/04:00am 20.0 19.7 15.4 75 2.7 WSW 11 15 6 8 1011.3 1010.8 1.4
06/03:30am 20.1 19.8 15.5 75 2.7 W 11 13 6 7 1011.5 1011.0 1.4
06/03:00am 20.0 20.0 15.2 74 2.8 WSW 9 11 5 6 1011.5 1011.0 1.4
06/02:30am 20.0 20.4 15.2 74 2.8 SW 7 9 4 5 1011.6 1011.1 1.4
06/02:00am 20.1 20.5 15.3 74 2.8 SW 7 7 4 4 1011.9 1011.4 1.4
06/01:30am 20.1 20.7 15.3 74 2.8 S 6 7 3 4 1012.1 1011.6 1.4
06/01:00am 20.2 20.2 15.2 73 3.0 SSW 9 11 5 6 1012.5 1012.0 1.4
06/12:30am 20.5 21.0 15.5 73 3.0 SW 7 9 4 5 1013.1 1012.6 1.4
06/12:00am 20.5 21.1 15.9 75 2.8 WSW 7 9 4 5 1013.7 1013.1 1.4
 
Date/Time
CDT
Temp
°C
App
Temp
°C
Dew
Point
°C
Rel
Hum
%
Delta-T
°C
Wind Press
QNH
hPa
Press
MSL
hPa
Rain since
9am
mm
Dir  Spd
km/h
Gust
km/h
Spd
kts
Gust
kts
05/11:30pm 20.5 21.2 15.5 73 3.0 SW 6 9 3 5 1013.6 1013.0 1.4
05/11:00pm 20.8 21.2 15.4 71 3.2 SW 7 9 4 5 1013.8 1013.2 1.4
05/10:30pm 20.9 21.5 15.9 73 3.0 S 7 9 4 5 1013.6 1013.0 1.4
05/10:00pm 21.9 21.1 14.0 61 4.6 SE 11 19 6 10 1013.1 1012.6 1.4
05/09:30pm 22.3 22.9 13.1 56 5.3 SW 2 7 1 4 1013.7 1013.1 1.4
05/09:00pm 22.6 23.4 12.5 53 5.8 CALM 0 0 0 0 1013.7 1013.1 1.4
05/08:30pm 22.6 22.6 12.3 52 5.9 SW 4 6 2 3 1013.9 1013.3 1.4
05/08:00pm 22.7 22.1 12.3 52 5.9 W 7 11 4 6 1013.9 1013.3 1.4
05/07:30pm 23.0 20.9 12.3 51 6.1 W 15 20 8 11 1013.8 1013.2 1.4
05/07:00pm 23.9 21.7 12.2 48 6.7 WNW 15 22 8 12 1013.6 1013.0 1.4
05/06:30pm 23.8 21.6 12.1 48 6.7 NW 15 20 8 11 1013.6 1013.0 1.4
05/06:00pm 23.7 21.8 11.7 47 6.8 NW 13 20 7 11 1013.3 1012.8 1.4
05/05:30pm 24.2 21.9 11.9 46 7.0 N 15 20 8 11 1013.6 1013.0 1.4
05/05:00pm 24.6 23.0 11.5 43 7.4 NNW 11 19 6 10 1014.1 1013.5 1.4
05/04:30pm 24.2 20.9 10.8 43 7.5 NW 19 30 10 16 1014.8 1014.2 1.4
05/04:00pm 24.3 20.9 10.6 42 7.6 NNW 19 28 10 15 1015.2 1014.6 1.4
05/03:30pm 24.0 21.7 11.7 46 7.0 NNW 15 22 8 12 1015.5 1014.9 1.4
05/03:00pm 22.5 20.9 11.6 50 6.1 NNW 11 20 6 11 1016.1 1015.5 1.2
05/02:30pm 21.5 19.9 11.5 53 5.6 NNW 11 20 6 11 1016.1 1015.5 1.2
05/02:00pm 22.3 20.6 12.3 53 5.7 N 13 22 7 12 1017.1 1016.5 1.2
05/01:30pm 21.5 19.8 12.6 57 5.1 N 13 28 7 15 1016.8 1016.2 1.2
05/01:00pm 21.0 19.8 12.9 60 4.6 NNE 11 17 6 9 1017.3 1016.7 1.2
05/12:30pm 20.4 20.0 12.9 62 4.3 N 7 13 4 7 1017.7 1017.1 1.2
05/12:00pm 19.7 20.0 14.5 72 3.0 NNE 6 7 3 4 1018.1 1017.6 1.2
05/11:30am 18.6 19.5 14.1 75 2.6 NNE 2 7 1 4 1018.3 1017.8 1.2
05/11:00am 18.0 18.2 14.7 81 1.9 S 7 11 4 6 1018.4 1017.9 1.2
05/10:30am 17.2 15.9 14.7 85 1.4 ENE 15 19 8 10 1017.6 1017.0 1.2
05/10:00am 17.0 18.3 14.1 83 1.7 CALM 0 0 0 0 1018.2 1017.7 1.2
05/09:30am 16.6 16.6 14.1 85 1.4 SSE 7 9 4 5 1018.1 1017.6 0.4
05/09:00am 16.6 15.4 13.9 84 1.5 S 13 17 7 9 1018.4 1017.9 0.2
05/08:30am 17.1 16.0 13.0 77 2.3 SW 11 15 6 8 1018.7 1018.2 0.0
05/08:00am 17.3 15.4 13.0 76 2.4 WSW 15 19 8 10 1018.6 1018.1 0.0
05/07:30am 18.2 15.4 11.5 65 3.7 WSW 17 22 9 12 1018.4 1017.9 0.0
05/07:00am 18.3 15.8 11.1 63 3.9 SSW 15 20 8 11 1016.9 1016.3 0.0
05/06:30am 18.0 14.8 11.1 64 3.8 SSE 19 24 10 13 1015.8 1015.2 0.0
05/06:00am 17.8 14.9 11.1 65 3.6 S 17 20 9 11 1015.8 1015.2 0.0
05/05:30am 17.9 15.4 11.0 64 3.7 S 15 20 8 11 1015.8 1015.2 0.0
05/05:00am 18.3 16.5 10.7 61 4.1 SW 11 17 6 9 1015.8 1015.2 0.0
05/04:30am 18.4 16.9 10.5 60 4.3 SSW 9 11 5 6 1015.2 1014.6 0.0
05/04:00am 18.6 14.9 10.2 58 4.5 ESE 20 28 11 15 1014.5 1013.9 0.0
05/03:48am 18.6 14.5 10.2 58 4.5 ESE 22 30 12 16 1013.6 1013.0 0.0
05/03:30am 18.8 15.0 9.8 56 4.8 S 20 28 11 15 1015.6 1015.0 0.0
05/03:00am 19.4 16.1 9.6 53 5.2 SW 17 22 9 12 1017.4 1016.8 0.0
05/02:30am 19.6 17.6 10.3 55 5.0 WSW 11 15 6 8 1017.0 1016.4 0.0
05/02:00am 19.9 17.7 9.5 51 5.6 S 11 15 6 8 1016.7 1016.1 0.0
05/01:30am 20.2 16.9 9.5 50 5.7 SSE 17 24 9 13 1016.1 1015.5 0.0
05/01:00am 19.8 16.3 11.0 57 4.8 SE 20 26 11 14 1015.7 1015.1 0.0
05/12:30am 21.4 18.9 8.0 42 7.0 SSW 11 20 6 11 1017.2 1016.6 0.0
05/12:00am 21.2 19.0 7.8 42 7.0 SSE 9 15 5 8 1016.7 1016.1 0.0
 
Date/Time
CDT
Temp
°C
App
Temp
°C
Dew
Point
°C
Rel
Hum
%
Delta-T
°C
Wind Press
QNH
hPa
Press
MSL
hPa
Rain since
9am
mm
Dir  Spd
km/h
Gust
km/h
Spd
kts
Gust
kts
04/11:30pm 21.3 19.1 7.9 42 7.0 SE 9 11 5 6 1017.2 1016.6 0.0
04/11:00pm 21.1 19.5 8.7 45 6.6 SSE 7 11 4 6 1017.5 1016.9 0.0
04/10:30pm 21.2 19.2 8.5 44 6.7 SSE 9 11 5 6 1017.5 1016.9 0.0
04/10:00pm 21.0 18.6 10.2 50 5.9 S 13 17 7 9 1017.8 1017.2 0.0
04/09:30pm 21.5 18.7 8.4 43 6.9 S 13 17 7 9 1017.8 1017.2 0.0
04/09:00pm 22.1 18.8 6.3 36 8.0 SSE 13 17 7 9 1017.5 1016.9 0.0
04/08:30pm 22.4 18.3 4.5 31 8.8 SSE 15 22 8 12 1017.6 1017.0 0.0
04/08:00pm 22.1 17.4 5.1 33 8.5 SSE 19 24 10 13 1017.5 1016.9 0.0
04/07:30pm 21.8 17.8 8.3 42 7.1 S 19 30 10 16 1017.5 1016.9 0.0
04/07:00pm 21.3 17.8 10.2 49 6.0 S 19 26 10 14 1017.3 1016.7 0.0
04/06:30pm 21.7 17.4 9.3 45 6.6 SSW 22 30 12 16 1017.8 1017.2 0.0
04/06:00pm 24.1 18.0 2.9 25 10.3 S 24 30 13 16 1018.2 1017.7 0.0
04/05:30pm 23.8 17.2 4.2 28 9.7 S 28 37 15 20 1018.3 1017.8 0.0
04/05:00pm 23.5 17.4 4.9 30 9.3 S 26 39 14 21 1018.4 1017.9 0.0
04/04:30pm 23.9 18.4 3.8 27 9.9 S 22 33 12 18 1018.8 1018.3 0.0
04/04:00pm 24.7 18.1 2.2 23 10.8 S 26 37 14 20 1018.7 1018.2 0.0
04/03:30pm 24.8 18.0 1.0 21 11.2 S 26 33 14 18 1019.4 1018.9 0.0
04/03:00pm 25.4 19.5 1.5 21 11.4 SSE 22 32 12 17 1019.2 1018.7 0.0
04/02:30pm 25.7 19.2 2.4 22 11.3 SSE 26 35 14 19 1019.1 1018.6 0.0
04/02:00pm 25.9 19.5 3.2 23 11.2 S 26 35 14 19 1019.0 1018.5 0.0
04/01:30pm 28.7 22.7 3.5 20 12.7 S 24 37 13 20 1019.3 1018.8 0.0
04/01:00pm 27.9 22.3 1.4 18 12.8 SSE 20 30 11 16 1019.4 1018.9 0.0
04/12:30pm 27.6 22.4 3.3 21 12.1 SSE 20 33 11 18 1019.6 1019.1 0.0
04/12:00pm 27.6 22.8 4.6 23 11.7 SSE 19 30 10 16 1019.8 1019.3 0.0
04/11:30am 26.7 22.1 5.6 26 10.9 SSE 19 28 10 15 1019.8 1019.3 0.0
04/11:00am 26.2 21.0 5.7 27 10.6 S 22 28 12 15 1020.0 1019.5 0.0
04/10:30am 25.2 20.7 5.9 29 9.9 S 19 28 10 15 1020.1 1019.6 0.0
04/10:00am 23.7 18.7 6.5 33 8.9 SE 22 30 12 16 1019.4 1018.9 0.0
04/09:30am 22.7 17.0 6.9 36 8.1 SSE 26 33 14 18 1019.6 1019.1 0.0
04/09:00am 21.6 15.8 7.8 41 7.2 SSE 28 35 15 19 1019.9 1019.4 0.0
04/08:30am 19.9 14.7 8.9 49 5.8 SSE 26 35 14 19 1019.4 1018.9 0.0
04/08:00am 18.9 13.6 8.6 51 5.4 SSE 26 37 14 20 1019.3 1018.8 0.0

Other formats

Comma delimited format used in spreadsheet applications
http://www.bom.gov.au/fwo/IDS60801/IDS60801.95658.axf

JavaScript Object Notation format (JSON) in row-major order
http://www.bom.gov.au/fwo/IDS60801/IDS60801.95658.json

Data quality

Most of these data are generated automatically and are frequently updated. Quality checks on data are not normally performed. It is possible for incorrect values to appear. Refer to information at About Latest Weather Observations and please check the disclaimer before using these data.